createdAt,value
2019-01-18T00:02:08.244Z,1.85
2019-01-18T00:04:36.519Z,1.90
2019-01-18T00:07:04.844Z,1.89
2019-01-18T00:09:33.123Z,1.87
2019-01-18T00:12:01.395Z,1.85
2019-01-18T00:14:29.706Z,1.60
2019-01-18T00:16:57.995Z,1.92
2019-01-18T00:19:26.276Z,1.74
2019-01-18T00:21:54.605Z,0.76
2019-01-18T00:24:22.951Z,1.23
2019-01-18T00:26:51.237Z,1.63
2019-01-18T00:29:19.567Z,1.47
2019-01-18T00:31:47.856Z,1.35
2019-01-18T00:34:16.160Z,1.57
2019-01-18T00:36:44.489Z,0.83
2019-01-18T00:39:12.774Z,1.28
2019-01-18T00:41:41.130Z,1.50
2019-01-18T00:44:09.522Z,1.39
2019-01-18T00:46:37.810Z,0.86
2019-01-18T00:49:06.098Z,0.68
2019-01-18T00:51:34.421Z,0.74
2019-01-18T00:54:02.704Z,0.92
2019-01-18T00:56:30.983Z,1.29
2019-01-18T00:58:59.310Z,1.30
2019-01-18T01:01:27.589Z,1.41
2019-01-18T01:03:55.946Z,1.57
2019-01-18T01:06:24.342Z,1.50
2019-01-18T01:08:52.635Z,1.17
2019-01-18T01:11:20.921Z,1.10
2019-01-18T01:13:49.380Z,1.20
2019-01-18T01:16:17.661Z,1.00
2019-01-18T01:18:46.014Z,1.29
2019-01-18T01:21:14.333Z,1.44
2019-01-18T01:23:42.625Z,1.01
2019-01-18T01:26:10.985Z,1.23
2019-01-18T01:28:39.311Z,1.35
2019-01-18T01:31:07.591Z,1.52
2019-01-18T01:33:36.009Z,1.26
2019-01-18T01:36:04.329Z,1.14
2019-01-18T01:38:32.628Z,1.28
2019-01-18T01:41:00.929Z,1.05
2019-01-18T01:43:29.253Z,0.86
2019-01-18T01:45:57.554Z,1.04
2019-01-18T01:48:25.839Z,1.32
2019-01-18T01:50:54.228Z,1.27
2019-01-18T01:53:22.977Z,1.07
2019-01-18T01:55:51.266Z,0.90
2019-01-18T01:58:19.665Z,0.43
2019-01-18T02:00:47.943Z,0.86
2019-01-18T02:03:16.302Z,0.97
2019-01-18T02:05:44.708Z,1.05
2019-01-18T02:08:13.065Z,0.94
2019-01-18T02:10:41.360Z,1.07
2019-01-18T02:13:09.759Z,0.96
2019-01-18T02:15:38.045Z,1.12
2019-01-18T02:18:06.346Z,0.78
2019-01-18T02:20:34.657Z,0.92
2019-01-18T02:23:03.010Z,0.93
2019-01-18T02:25:32.436Z,0.24
2019-01-18T02:28:00.757Z,0.38
2019-01-18T02:30:29.050Z,0.73
2019-01-18T02:32:57.337Z,0.96
2019-01-18T02:38:19.630Z,-0.02
2019-01-18T02:40:47.923Z,0.41
2019-01-18T02:43:16.227Z,0.80
2019-01-18T02:45:44.525Z,0.73
2019-01-18T02:48:12.805Z,0.85
2019-01-18T02:50:41.094Z,0.61
2019-01-18T02:53:09.484Z,0.73
2019-01-18T02:55:37.766Z,-0.48
2019-01-18T02:58:06.052Z,-0.20
2019-01-18T03:00:34.394Z,0.22
2019-01-18T03:03:02.672Z,0.54
2019-01-18T03:05:30.965Z,0.59
2019-01-18T03:07:59.292Z,-0.11
2019-01-18T03:10:28.916Z,0.52
2019-01-18T03:12:57.199Z,0.68
2019-01-18T03:15:25.590Z,0.82
2019-01-18T03:17:53.880Z,0.81
2019-01-18T03:20:22.165Z,0.85
2019-01-18T03:22:50.479Z,0.84
2019-01-18T03:25:21.452Z,0.82
2019-01-18T03:27:49.744Z,0.70
2019-01-18T03:30:20.803Z,-0.35
2019-01-18T03:32:49.020Z,-0.01
2019-01-18T03:35:19.136Z,-0.09
2019-01-18T03:37:47.455Z,-0.70
2019-01-18T03:40:16.879Z,-0.70
2019-01-18T03:42:45.155Z,-0.02
2019-01-18T03:45:15.306Z,0.13
2019-01-18T03:47:43.621Z,0.28
2019-01-18T03:50:17.081Z,0.32
2019-01-18T03:52:45.398Z,0.41
2019-01-18T03:55:13.759Z,0.64
2019-01-18T03:57:42.035Z,0.52
2019-01-18T04:00:13.464Z,-0.34
2019-01-18T04:02:41.743Z,-1.00
2019-01-18T04:05:10.967Z,-1.12
2019-01-18T04:07:39.290Z,-1.33
2019-01-18T04:10:10.891Z,-0.96
2019-01-18T04:12:39.173Z,-0.38
2019-01-18T04:15:10.963Z,0.08
2019-01-18T04:17:39.243Z,0.19
2019-01-18T04:20:10.462Z,0.22
2019-01-18T04:22:38.790Z,-0.34
2019-01-18T04:25:10.094Z,-0.21
2019-01-18T04:27:38.459Z,-0.11
2019-01-18T04:30:12.507Z,0.04
2019-01-18T04:32:40.791Z,-0.55
2019-01-18T04:35:10.406Z,0.29
2019-01-18T04:37:38.706Z,0.31
2019-01-18T04:40:10.299Z,0.48
2019-01-18T04:42:38.583Z,0.31
2019-01-18T04:45:08.433Z,0.45
2019-01-18T04:47:36.704Z,0.34
2019-01-18T04:50:11.053Z,0.31
2019-01-18T04:52:39.443Z,0.33
2019-01-18T04:55:09.166Z,0.11
2019-01-18T04:57:37.516Z,0.51
2019-01-18T05:00:09.175Z,0.48
2019-01-18T05:02:37.460Z,0.67
2019-01-18T05:05:06.476Z,0.58
2019-01-18T05:07:34.794Z,0.44
2019-01-18T05:10:04.821Z,0.36
2019-01-18T05:12:33.098Z,0.40
2019-01-18T05:15:01.416Z,0.47
2019-01-18T05:17:29.701Z,0.32
2019-01-18T05:19:57.976Z,0.45
2019-01-18T05:22:26.292Z,0.50
2019-01-18T05:24:54.574Z,0.46
2019-01-18T05:27:22.862Z,-0.37
2019-01-18T05:29:51.264Z,-1.62
2019-01-18T05:32:19.554Z,-0.47
2019-01-18T05:34:47.852Z,-0.46
2019-01-18T05:37:16.176Z,-0.69
2019-01-18T05:39:44.454Z,-0.46
2019-01-18T05:42:12.817Z,-0.27
2019-01-18T05:44:41.150Z,-0.21
2019-01-18T05:47:09.431Z,-0.23
2019-01-18T05:49:37.721Z,-0.40
2019-01-18T05:52:06.039Z,0.25
2019-01-18T05:54:34.321Z,0.11
2019-01-18T05:57:02.610Z,0.03
2019-01-18T05:59:30.945Z,-0.37
2019-01-18T06:01:59.225Z,0.00
2019-01-18T06:04:27.511Z,-0.26
2019-01-18T06:06:55.828Z,-0.73
2019-01-18T06:09:24.176Z,-0.65
2019-01-18T06:11:52.467Z,-0.50
2019-01-18T06:14:20.795Z,-0.35
2019-01-18T06:16:49.077Z,-0.09
2019-01-18T06:19:17.346Z,0.04
2019-01-18T06:21:45.668Z,-0.82
2019-01-18T06:24:13.950Z,-0.22
2019-01-18T06:26:42.229Z,-0.52
2019-01-18T06:29:10.574Z,-0.37
2019-01-18T06:31:38.858Z,-0.18
2019-01-18T06:34:07.147Z,-0.17
2019-01-18T06:36:35.537Z,0.26
2019-01-18T06:39:05.519Z,-0.18
2019-01-18T06:41:34.587Z,-0.24
2019-01-18T06:44:02.906Z,-0.13
2019-01-18T06:46:31.191Z,-0.14
2019-01-18T06:48:59.745Z,0.25
2019-01-18T06:51:28.156Z,-0.22
2019-01-18T06:53:56.438Z,0.33
2019-01-18T06:56:24.719Z,0.20
2019-01-18T06:58:53.036Z,0.42
2019-01-18T07:01:21.318Z,0.16
2019-01-18T07:03:49.675Z,0.16
2019-01-18T07:06:17.995Z,-0.05
2019-01-18T07:08:46.273Z,0.30
2019-01-18T07:11:14.632Z,0.59
2019-01-18T07:13:42.958Z,0.78
2019-01-18T07:16:11.241Z,0.85
2019-01-18T07:18:39.526Z,0.84
2019-01-18T07:21:07.850Z,0.41
2019-01-18T07:23:36.205Z,0.39
2019-01-18T07:26:04.491Z,-0.43
2019-01-18T07:28:32.812Z,-0.03
2019-01-18T07:31:01.232Z,0.09
2019-01-18T07:33:29.517Z,0.31
2019-01-18T07:35:57.839Z,-0.52
2019-01-18T07:38:26.124Z,-0.26
2019-01-18T07:40:54.478Z,-0.05
2019-01-18T07:43:22.874Z,0.23
2019-01-18T07:45:51.160Z,0.67
2019-01-18T07:48:19.442Z,0.04
2019-01-18T07:50:47.768Z,0.60
2019-01-18T07:53:16.440Z,0.67
2019-01-18T07:55:44.723Z,1.17
2019-01-18T07:58:13.044Z,0.99
2019-01-18T08:00:41.960Z,1.35
2019-01-18T08:03:10.245Z,0.93
2019-01-18T08:05:38.580Z,1.44
2019-01-18T08:08:06.934Z,0.78
2019-01-18T08:10:35.285Z,1.50
2019-01-18T08:13:03.717Z,1.53
2019-01-18T08:15:33.107Z,1.89
2019-01-18T08:18:01.576Z,2.13
2019-01-18T08:20:30.163Z,2.25
2019-01-18T08:22:58.687Z,1.63
2019-01-18T08:25:27.205Z,2.14
2019-01-18T08:27:55.607Z,2.35
2019-01-18T08:30:26.497Z,2.54
2019-01-18T09:08:16.800Z,4.63
2019-01-18T09:10:46.554Z,3.78
2019-01-18T09:13:14.921Z,3.88
2019-01-18T09:15:43.239Z,4.07
2019-01-18T09:18:11.510Z,4.25
2019-01-18T09:20:39.785Z,4.24
2019-01-18T09:23:08.096Z,4.41
2019-01-18T09:25:36.390Z,4.45
2019-01-18T09:28:04.648Z,4.44
2019-01-18T09:30:34.274Z,3.72
2019-01-18T09:33:03.688Z,3.99
2019-01-18T09:35:32.694Z,4.43
2019-01-18T09:38:02.241Z,4.32
2019-01-18T09:40:32.351Z,3.77
2019-01-18T09:43:00.626Z,4.23
2019-01-18T09:45:29.011Z,3.67
2019-01-18T09:47:57.286Z,4.42
2019-01-18T09:50:27.875Z,4.54
2019-01-18T09:52:56.339Z,5.01
2019-01-18T09:55:24.619Z,5.04
2019-01-18T09:57:52.902Z,5.10
2019-01-18T10:00:35.513Z,5.06
2019-01-18T10:03:03.861Z,5.10
2019-01-18T10:05:32.207Z,5.02
2019-01-18T10:08:00.589Z,4.75
2019-01-18T10:10:28.875Z,4.88
2019-01-18T10:12:57.146Z,4.79
2019-01-18T10:15:42.010Z,5.18
2019-01-18T10:18:10.367Z,5.06
2019-01-18T10:20:38.643Z,5.15
2019-01-18T10:23:06.960Z,4.85
2019-01-18T10:25:35.240Z,5.10
2019-01-18T10:28:03.520Z,5.56
2019-01-18T10:30:31.816Z,5.64
2019-01-18T10:33:00.100Z,5.49
2019-01-18T10:35:28.818Z,5.38
2019-01-18T10:37:57.142Z,5.58
2019-01-18T10:40:25.689Z,5.52
2019-01-18T10:42:53.995Z,5.17
2019-01-18T10:45:22.526Z,4.50
2019-01-18T10:47:51.251Z,4.99
2019-01-18T10:50:28.230Z,4.50
2019-01-18T10:52:56.519Z,4.86
2019-01-18T10:55:24.790Z,4.50
2019-01-18T10:57:53.098Z,4.26
2019-01-18T11:00:30.143Z,5.35
2019-01-18T11:02:58.523Z,5.05
2019-01-18T11:05:26.802Z,4.85
2019-01-18T11:07:55.102Z,4.94
2019-01-18T11:10:23.415Z,5.18
2019-01-18T11:12:51.694Z,4.93
2019-01-18T11:15:23.241Z,5.42
2019-01-18T11:17:51.551Z,5.18
2019-01-18T11:20:22.644Z,4.10
2019-01-18T11:22:51.751Z,5.16
2019-01-18T11:25:20.072Z,5.34
2019-01-18T11:27:50.381Z,5.55
2019-01-18T11:30:18.658Z,4.95
2019-01-18T11:32:46.980Z,4.41
2019-01-18T11:35:15.258Z,4.20
2019-01-18T11:37:43.545Z,4.91
2019-01-18T11:40:20.573Z,4.77
2019-01-18T11:42:48.859Z,4.99
2019-01-18T11:45:17.286Z,4.74
2019-01-18T11:47:45.669Z,4.49
2019-01-18T11:50:28.187Z,4.65
2019-01-18T11:52:56.499Z,4.90
2019-01-18T11:55:24.858Z,5.40
2019-01-18T11:57:53.137Z,5.11
2019-01-18T12:00:23.689Z,4.87
2019-01-18T12:02:52.048Z,4.85
2019-01-18T12:05:20.329Z,5.39
2019-01-18T12:07:48.731Z,5.39
2019-01-18T12:10:28.280Z,5.95
2019-01-18T12:12:56.605Z,5.69
2019-01-18T12:15:25.050Z,5.73
2019-01-18T12:17:53.404Z,5.85
2019-01-18T12:20:27.768Z,5.94
2019-01-18T12:22:56.259Z,6.18
2019-01-18T12:25:24.755Z,5.81
2019-01-18T12:27:53.270Z,6.07
2019-01-18T12:30:27.038Z,6.09
2019-01-18T12:32:55.457Z,5.81
2019-01-18T12:35:23.774Z,5.86
2019-01-18T12:37:52.264Z,6.05
2019-01-18T12:40:20.553Z,6.37
2019-01-18T12:42:48.877Z,6.45
2019-01-18T12:45:19.281Z,6.23
2019-01-18T12:47:47.652Z,6.38
2019-01-18T12:50:25.062Z,6.35
2019-01-18T12:52:53.336Z,6.52
2019-01-18T12:55:21.748Z,6.55
2019-01-18T12:57:51.719Z,6.45
2019-01-18T13:00:22.478Z,6.79
2019-01-18T13:02:50.770Z,6.71
2019-01-18T13:05:21.678Z,6.34
2019-01-18T13:07:50.199Z,6.34
2019-01-18T13:10:18.685Z,5.96
2019-01-18T13:12:47.067Z,6.30
2019-01-18T13:15:18.671Z,5.60
2019-01-18T13:17:47.159Z,6.43
2019-01-18T13:20:15.529Z,6.55
2019-01-18T13:22:44.039Z,6.30
2019-01-18T13:25:17.801Z,6.81
2019-01-18T13:27:46.327Z,6.43
2019-01-18T13:30:16.619Z,6.15
2019-01-18T13:32:44.887Z,6.29
2019-01-18T13:35:13.414Z,6.72
2019-01-18T13:37:41.696Z,6.80
2019-01-18T13:40:15.783Z,6.82
2019-01-18T13:42:44.089Z,6.71
2019-01-18T13:45:13.475Z,6.74
2019-01-18T13:47:42.700Z,6.41
2019-01-18T13:50:14.332Z,6.56
2019-01-18T13:52:42.822Z,6.43
2019-01-18T13:55:23.404Z,6.47
2019-01-18T13:57:51.748Z,6.64
2019-01-18T14:00:20.232Z,6.67
2019-01-18T14:02:48.815Z,6.02
2019-01-18T14:05:17.322Z,6.02
2019-01-18T14:07:45.809Z,6.60
2019-01-18T14:10:23.049Z,5.95
2019-01-18T14:12:51.396Z,6.53
2019-01-18T14:15:21.440Z,6.40
2019-01-18T14:17:50.000Z,6.59
2019-01-18T14:20:23.869Z,6.59
2019-01-18T14:22:52.645Z,6.65
2019-01-18T14:25:21.183Z,6.56
2019-01-18T14:27:49.674Z,6.58
2019-01-18T14:30:20.837Z,6.58
2019-01-18T14:32:55.155Z,6.49
2019-01-18T14:35:19.360Z,6.48
2019-01-18T14:37:47.846Z,6.45
2019-01-18T14:40:18.321Z,6.32
2019-01-18T14:42:51.209Z,6.48
2019-01-18T14:45:34.318Z,6.30
2019-01-18T14:48:02.792Z,6.29
2019-01-18T14:50:31.282Z,6.31
2019-01-18T14:52:59.807Z,6.40
2019-01-18T14:55:28.294Z,5.52
2019-01-18T14:57:56.777Z,4.91
2019-01-18T15:00:34.515Z,4.85
2019-01-18T15:03:04.561Z,5.21
2019-01-18T15:05:33.048Z,5.41
2019-01-18T15:08:01.571Z,5.70
2019-01-18T15:10:30.054Z,5.69
2019-01-18T15:13:07.704Z,5.62
2019-01-18T15:15:36.180Z,5.45
2019-01-18T15:18:04.667Z,5.39
2019-01-18T15:20:34.278Z,5.32
2019-01-18T15:23:02.965Z,5.28
2019-01-18T15:25:31.461Z,5.19
2019-01-18T15:28:00.990Z,5.17
2019-01-18T15:30:31.447Z,4.91
2019-01-18T15:33:00.798Z,4.94
2019-01-18T15:35:32.041Z,4.84
2019-01-18T15:38:00.491Z,4.20
2019-01-18T15:40:31.641Z,4.06
2019-01-18T15:43:01.168Z,4.49
2019-01-18T15:45:29.660Z,4.59
2019-01-18T15:47:58.151Z,3.87
2019-01-18T15:50:32.274Z,4.57
2019-01-18T15:53:00.806Z,4.46
2019-01-18T15:55:29.254Z,4.57
2019-01-18T15:57:57.759Z,4.79
2019-01-18T16:00:34.245Z,4.62
2019-01-18T16:03:02.766Z,4.52
2019-01-18T16:05:31.256Z,4.77
2019-01-18T16:07:59.742Z,4.72
2019-01-18T16:10:28.268Z,4.17
2019-01-18T16:12:56.803Z,4.64
2019-01-18T16:15:31.408Z,4.82
2019-01-18T16:18:00.049Z,4.67
2019-01-18T16:20:28.539Z,4.40
2019-01-18T16:22:57.024Z,4.70
2019-01-18T16:25:28.069Z,4.66
2019-01-18T16:27:56.559Z,4.60
2019-01-18T16:30:26.350Z,4.60
2019-01-18T16:32:57.430Z,4.62
2019-01-18T16:35:26.007Z,4.50
2019-01-18T16:37:54.510Z,4.55
2019-01-18T16:40:25.822Z,4.50
2019-01-18T16:43:00.506Z,4.41
2019-01-18T16:45:28.984Z,4.32
2019-01-18T16:47:57.499Z,4.38
2019-01-18T16:50:25.984Z,4.38
2019-01-18T16:52:54.488Z,3.44
2019-01-18T16:55:22.998Z,3.96
2019-01-18T16:57:51.487Z,4.25
2019-01-18T17:00:26.000Z,4.09
2019-01-18T17:02:54.725Z,4.16
2019-01-18T17:05:23.223Z,4.29
2019-01-18T17:07:51.707Z,4.19
2019-01-18T17:10:20.237Z,4.10
2019-01-18T17:12:48.752Z,3.99
2019-01-18T17:15:18.108Z,3.80
2019-01-18T17:17:46.625Z,3.98
2019-01-18T17:20:26.270Z,4.14
2019-01-18T17:22:54.802Z,4.08
2019-01-18T17:25:26.988Z,4.15
2019-01-18T17:27:55.499Z,4.14
2019-01-18T17:30:24.038Z,3.30
2019-01-18T17:32:52.528Z,3.81
2019-01-18T17:35:38.986Z,3.99
2019-01-18T17:38:16.175Z,3.82
2019-01-18T17:41:05.672Z,3.84
2019-01-18T17:44:05.397Z,3.84
2019-01-18T17:46:37.049Z,3.94
2019-01-18T17:49:14.417Z,3.98
2019-01-18T17:51:55.132Z,4.11
2019-01-18T17:54:35.406Z,4.07
2019-01-18T17:57:12.865Z,4.09
2019-01-18T17:59:59.280Z,4.12
2019-01-18T18:02:30.959Z,3.94
2019-01-18T18:05:25.308Z,3.81
2019-01-18T18:08:09.125Z,4.18
2019-01-18T18:10:49.395Z,3.81
2019-01-18T18:13:25.051Z,4.15
2019-01-18T18:16:11.632Z,4.23
2019-01-18T18:19:01.113Z,4.17
2019-01-18T18:21:50.427Z,4.28
2019-01-18T18:24:24.830Z,4.16
2019-01-18T18:27:12.943Z,4.10
2019-01-18T18:29:44.606Z,4.21
2019-01-18T18:32:18.807Z,4.33
2019-01-18T18:34:53.094Z,4.14
2019-01-18T18:37:50.341Z,4.03
2019-01-18T18:40:30.618Z,4.37
2019-01-18T18:43:11.945Z,3.92
2019-01-18T18:46:01.681Z,3.11
2019-01-18T18:48:39.397Z,3.88
2019-01-18T18:51:29.140Z,4.09
2019-01-18T18:54:24.390Z,4.17
2019-01-18T18:57:04.742Z,4.26
2019-01-18T18:59:42.345Z,4.27
2019-01-18T19:02:19.542Z,4.36
2019-01-18T19:04:56.900Z,4.39
2019-01-18T19:07:37.637Z,4.41
2019-01-18T19:10:42.150Z,4.50
2019-01-18T19:13:22.580Z,4.44
2019-01-18T19:16:02.814Z,4.42
2019-01-18T19:18:46.062Z,4.48
2019-01-18T19:21:20.684Z,4.51
2019-01-18T19:24:06.734Z,4.61
2019-01-18T19:26:38.357Z,4.64
2019-01-18T19:29:15.985Z,4.63
2019-01-18T19:31:55.975Z,4.67
2019-01-18T19:34:33.301Z,4.71
2019-01-18T19:37:26.009Z,4.48
2019-01-18T19:40:16.677Z,4.68
2019-01-18T19:43:06.872Z,4.68
2019-01-18T19:45:47.941Z,4.72
2019-01-18T19:48:34.178Z,4.76
2019-01-18T19:51:23.900Z,4.78
2019-01-18T19:54:04.396Z,4.70
2019-01-18T19:56:47.955Z,4.79
2019-01-18T19:59:19.559Z,4.67
2019-01-18T20:02:09.207Z,4.87
2019-01-18T20:04:55.640Z,4.57
2019-01-18T20:07:35.711Z,4.81
2019-01-18T20:10:28.174Z,4.99
2019-01-18T20:13:07.246Z,4.94
2019-01-18T20:15:50.760Z,4.85
2019-01-18T20:18:31.584Z,4.88
2019-01-18T20:21:12.167Z,4.92
2019-01-18T20:24:01.880Z,4.85
2019-01-18T20:26:45.009Z,4.20
2019-01-18T20:29:19.125Z,4.58
2019-01-18T20:32:20.507Z,4.70
2019-01-18T20:35:08.368Z,4.71
2019-01-18T20:37:52.136Z,4.47
2019-01-18T20:40:24.297Z,4.64
2019-01-18T20:43:19.898Z,4.70
2019-01-18T20:46:03.234Z,4.73
2019-01-18T20:48:40.880Z,4.67
2019-01-18T20:51:12.516Z,4.73
2019-01-18T20:53:53.036Z,4.72
2019-01-18T20:56:27.669Z,4.75
2019-01-18T20:58:59.295Z,4.75
2019-01-18T21:01:57.792Z,4.78
2019-01-18T21:04:50.326Z,4.74
2019-01-18T21:07:49.363Z,4.68
2019-01-18T21:10:26.609Z,4.69
2019-01-18T21:13:26.599Z,4.71
2019-01-18T21:16:06.998Z,4.61
2019-01-18T21:18:44.510Z,4.59
2019-01-18T21:21:41.675Z,4.64
2019-01-18T21:24:29.562Z,4.55
2019-01-18T21:27:07.220Z,4.48
2019-01-18T21:29:38.859Z,4.43
2019-01-18T21:32:28.540Z,4.55
2019-01-18T21:35:11.699Z,4.71
2019-01-18T21:37:43.294Z,4.61
2019-01-18T21:40:29.881Z,4.49
2019-01-18T21:43:16.413Z,4.54
2019-01-18T21:46:02.665Z,4.43
2019-01-18T21:48:42.907Z,4.49
2019-01-18T21:51:30.911Z,4.45
2019-01-18T21:54:02.512Z,4.41
2019-01-18T21:56:55.293Z,4.40
2019-01-18T21:59:51.027Z,3.90
2019-01-18T22:02:28.110Z,4.20
2019-01-18T22:05:17.667Z,4.22
2019-01-18T22:08:01.288Z,4.19
2019-01-18T22:10:32.830Z,4.26
2019-01-18T22:13:19.081Z,4.29
2019-01-18T22:16:12.956Z,4.34
2019-01-18T22:18:44.553Z,4.20
2019-01-18T22:21:37.229Z,4.22
2019-01-18T22:24:14.513Z,4.17
2019-01-18T22:27:08.531Z,4.15
2019-01-18T22:29:45.850Z,4.19
2019-01-18T22:32:26.141Z,3.78
2019-01-18T22:35:00.634Z,3.97
2019-01-18T22:37:46.846Z,4.10
2019-01-18T22:40:29.766Z,4.13
2019-01-18T22:43:21.507Z,3.89
2019-01-18T22:45:55.803Z,4.11
2019-01-18T22:48:30.076Z,4.12
2019-01-18T22:51:16.410Z,4.02
2019-01-18T22:53:47.945Z,3.93
2019-01-18T22:56:19.488Z,3.97
2019-01-18T22:58:53.546Z,4.07
2019-01-18T23:01:50.549Z,4.10
2019-01-18T23:04:33.692Z,4.17
2019-01-18T23:07:19.629Z,4.10
2019-01-18T23:10:12.255Z,4.08
2019-01-18T23:12:55.811Z,4.18
2019-01-18T23:16:01.667Z,4.17
2019-01-18T23:18:41.980Z,3.89
2019-01-18T23:21:25.710Z,3.32
2019-01-18T23:24:02.800Z,4.05
2019-01-18T23:26:55.047Z,4.06
2019-01-18T23:29:29.382Z,4.08
2019-01-18T23:32:00.943Z,4.08
2019-01-18T23:34:38.113Z,4.14
2019-01-18T23:37:27.705Z,4.22
2019-01-18T23:40:29.427Z,4.07
2019-01-18T23:43:09.610Z,4.16
2019-01-18T23:45:52.405Z,4.06
2019-01-18T23:48:58.355Z,4.15
2019-01-18T23:51:39.293Z,4.11
2019-01-18T23:54:31.865Z,4.00
2019-01-18T23:57:37.852Z,4.03
